createdAt,value
2022-09-23T00:02:16.637Z,8.14
2022-09-23T00:04:48.137Z,8.14
2022-09-23T00:07:19.559Z,8.13
2022-09-23T00:09:51.288Z,8.16
2022-09-23T00:12:22.801Z,8.14
2022-09-23T00:14:54.357Z,8.11
2022-09-23T00:17:27.242Z,8.05
2022-09-23T00:19:58.789Z,8.00
2022-09-23T00:22:28.777Z,7.94
2022-09-23T00:25:00.256Z,7.82
2022-09-23T00:27:33.147Z,7.73
2022-09-23T00:30:05.868Z,7.70
2022-09-23T00:32:37.984Z,7.67
2022-09-23T00:35:10.690Z,7.70
2022-09-23T00:37:42.562Z,7.72
2022-09-23T00:40:14.166Z,7.74
2022-09-23T00:42:51.122Z,7.73
2022-09-23T00:45:22.542Z,7.70
2022-09-23T00:47:57.780Z,7.70
2022-09-23T00:50:32.211Z,7.74
2022-09-23T00:53:06.634Z,7.79
2022-09-23T00:55:43.256Z,7.81
2022-09-23T00:58:19.416Z,7.80
2022-09-23T01:00:50.879Z,7.73
2022-09-23T01:03:23.004Z,7.70
2022-09-23T01:05:55.315Z,7.70
2022-09-23T01:08:28.468Z,7.71
2022-09-23T01:11:11.121Z,7.71
2022-09-23T01:13:54.384Z,7.71
2022-09-23T01:16:34.648Z,7.69
2022-09-23T01:19:24.041Z,7.67
2022-09-23T01:22:05.810Z,7.63
2022-09-23T01:24:59.513Z,7.64
2022-09-23T01:27:42.957Z,7.62
2022-09-23T01:30:46.311Z,7.58
2022-09-23T01:33:26.266Z,7.53
2022-09-23T01:36:11.729Z,7.45
2022-09-23T01:38:53.671Z,7.37
2022-09-23T01:41:43.949Z,7.36
2022-09-23T01:44:22.916Z,7.37
2022-09-23T01:46:58.093Z,7.38
2022-09-23T01:49:34.728Z,7.38
2022-09-23T01:52:38.732Z,7.38
2022-09-23T01:55:17.194Z,7.35
2022-09-23T01:57:56.253Z,7.34
2022-09-23T02:00:30.657Z,7.32
2022-09-23T02:03:05.893Z,7.28
2022-09-23T02:05:44.012Z,7.21
2022-09-23T02:08:19.172Z,7.13
2022-09-23T02:10:56.180Z,7.11
2022-09-23T02:13:32.622Z,7.08
2022-09-23T02:16:11.800Z,7.06
2022-09-23T02:18:48.626Z,7.05
2022-09-23T02:21:24.381Z,7.08
2022-09-23T02:24:03.133Z,7.14
2022-09-23T02:26:38.404Z,7.19
2022-09-23T02:29:19.498Z,7.20
2022-09-23T02:31:59.089Z,7.18
2022-09-23T02:34:43.874Z,7.13
2022-09-23T02:37:24.726Z,7.11
2022-09-23T02:40:02.930Z,7.11
2022-09-23T02:42:41.193Z,7.08
2022-09-23T02:45:12.644Z,7.06
2022-09-23T02:47:47.754Z,7.05
2022-09-23T02:50:19.548Z,7.00
2022-09-23T02:52:51.518Z,6.98
2022-09-23T02:55:26.236Z,6.94
2022-09-23T02:57:57.967Z,6.91
2022-09-23T03:00:36.411Z,6.86
2022-09-23T03:03:24.117Z,6.85
2022-09-23T03:05:59.671Z,6.84
2022-09-23T03:08:44.650Z,6.85
2022-09-23T03:11:17.595Z,6.84
2022-09-23T03:14:05.113Z,6.84
2022-09-23T03:16:43.713Z,6.82
2022-09-23T03:19:24.467Z,6.79
2022-09-23T03:22:05.347Z,6.75
2022-09-23T03:24:39.995Z,6.69
2022-09-23T03:27:16.549Z,6.62
2022-09-23T03:29:50.070Z,6.58
2022-09-23T03:32:24.377Z,6.56
2022-09-23T03:34:58.860Z,6.56
2022-09-23T03:37:34.844Z,6.55
2022-09-23T03:40:14.680Z,6.54
2022-09-23T03:42:48.982Z,6.57
2022-09-23T03:45:23.769Z,6.59
2022-09-23T03:47:55.713Z,6.55
2022-09-23T03:50:27.552Z,6.52
2022-09-23T03:52:59.586Z,6.53
2022-09-23T03:55:32.133Z,6.57
2022-09-23T03:58:04.754Z,6.61
2022-09-23T04:00:37.148Z,6.67
2022-09-23T04:03:11.762Z,6.73
2022-09-23T04:05:43.534Z,6.78
2022-09-23T04:08:14.986Z,6.84
2022-09-23T04:10:46.971Z,6.89
2022-09-23T04:13:19.256Z,6.93
2022-09-23T04:15:53.473Z,6.97
2022-09-23T04:18:25.096Z,7.03
2022-09-23T04:20:59.668Z,7.06
2022-09-23T04:23:31.565Z,7.04
2022-09-23T04:26:02.954Z,7.04
2022-09-23T04:28:34.413Z,7.07
2022-09-23T04:31:09.357Z,7.12
2022-09-23T04:33:41.073Z,7.19
2022-09-23T04:36:12.623Z,7.23
2022-09-23T04:38:45.977Z,7.26
2022-09-23T04:41:18.876Z,7.27
2022-09-23T04:43:50.343Z,7.28
2022-09-23T04:46:21.885Z,7.29
2022-09-23T04:48:51.910Z,7.29
2022-09-23T04:51:25.772Z,7.26
2022-09-23T04:53:57.689Z,7.28
2022-09-23T04:56:32.561Z,7.29
2022-09-23T04:59:04.163Z,7.30
2022-09-23T05:01:36.297Z,7.30
2022-09-23T05:04:14.091Z,7.29
2022-09-23T05:06:45.805Z,7.34
2022-09-23T05:09:17.776Z,7.36
2022-09-23T05:11:48.485Z,7.32
2022-09-23T05:14:20.131Z,7.18
2022-09-23T05:16:50.092Z,7.12
2022-09-23T05:19:22.220Z,7.10
2022-09-23T05:21:53.670Z,7.14
2022-09-23T05:24:26.222Z,7.21
2022-09-23T05:26:57.720Z,7.26
2022-09-23T05:29:27.945Z,7.31
2022-09-23T05:31:59.833Z,7.32
2022-09-23T05:34:32.262Z,7.34
2022-09-23T05:37:04.377Z,7.37
2022-09-23T05:39:35.805Z,7.41
2022-09-23T05:42:07.973Z,7.47
2022-09-23T05:44:40.118Z,7.53
2022-09-23T05:47:11.582Z,7.60
2022-09-23T05:49:59.271Z,7.64
2022-09-23T05:52:31.533Z,7.71
2022-09-23T05:55:03.245Z,7.81
2022-09-23T05:57:34.765Z,7.87
2022-09-23T06:00:10.531Z,7.94
2022-09-23T06:02:43.546Z,7.98
2022-09-23T06:05:15.720Z,8.04
2022-09-23T06:07:47.159Z,8.15
2022-09-23T06:10:18.942Z,8.23
2022-09-23T06:12:50.436Z,8.31
2022-09-23T06:15:21.907Z,8.39
2022-09-23T06:17:53.357Z,8.46
2022-09-23T06:20:24.796Z,8.52
2022-09-23T06:22:58.149Z,8.60
2022-09-23T06:25:29.634Z,8.57
2022-09-23T06:28:01.156Z,8.54
2022-09-23T06:30:31.178Z,8.43
2022-09-23T06:33:03.031Z,8.29
2022-09-23T06:35:33.456Z,8.26
2022-09-23T06:38:06.605Z,8.18
2022-09-23T06:40:38.281Z,8.20
2022-09-23T06:43:08.298Z,8.30
2022-09-23T06:45:39.818Z,8.39
2022-09-23T06:48:11.447Z,8.57
2022-09-23T06:50:41.457Z,8.67
2022-09-23T06:53:13.429Z,8.75
2022-09-23T06:55:45.378Z,8.91
2022-09-23T06:58:17.044Z,9.06
2022-09-23T07:00:48.471Z,9.21
2022-09-23T07:03:20.949Z,9.32
2022-09-23T07:05:57.005Z,9.39
2022-09-23T07:08:30.281Z,9.54
2022-09-23T07:11:03.283Z,9.67
2022-09-23T07:13:37.017Z,9.62
2022-09-23T07:16:09.611Z,9.63
2022-09-23T07:18:41.483Z,9.66
2022-09-23T07:21:15.231Z,9.69
2022-09-23T07:23:48.290Z,9.67
2022-09-23T07:26:20.851Z,9.73
2022-09-23T07:28:56.389Z,9.85
2022-09-23T07:31:38.722Z,10.06
2022-09-23T07:34:12.152Z,10.38
2022-09-23T07:36:43.955Z,10.66
2022-09-23T07:39:14.299Z,10.87
2022-09-23T07:41:45.694Z,10.92
2022-09-23T07:44:17.928Z,11.03
2022-09-23T07:46:50.020Z,11.18
2022-09-23T07:49:21.569Z,11.40
2022-09-23T07:51:52.806Z,11.59
2022-09-23T07:54:25.480Z,11.71
2022-09-23T07:56:57.112Z,11.88
2022-09-23T07:59:28.656Z,12.00
2022-09-23T08:01:58.681Z,12.13
2022-09-23T08:04:33.143Z,12.16
2022-09-23T08:07:06.721Z,12.23
2022-09-23T08:09:41.842Z,12.30
2022-09-23T08:12:16.454Z,12.36
2022-09-23T08:14:47.970Z,12.44
2022-09-23T08:17:17.923Z,12.48
2022-09-23T08:19:49.361Z,12.31
2022-09-23T08:22:19.830Z,12.26
2022-09-23T08:24:53.034Z,12.16
2022-09-23T08:27:28.078Z,12.13
2022-09-23T08:29:59.581Z,12.17
2022-09-23T08:32:31.755Z,12.24
2022-09-23T08:35:03.216Z,12.34
2022-09-23T08:37:33.183Z,12.46
2022-09-23T08:40:05.268Z,12.53
2022-09-23T08:42:40.073Z,12.64
2022-09-23T08:45:18.473Z,12.67
2022-09-23T08:47:54.871Z,12.68
2022-09-23T08:50:29.809Z,12.71
2022-09-23T08:53:04.516Z,12.69
2022-09-23T08:55:42.680Z,12.70
2022-09-23T08:58:30.909Z,12.76
2022-09-23T09:01:11.603Z,12.82
2022-09-23T09:03:50.491Z,12.84
2022-09-23T09:06:27.059Z,12.94
2022-09-23T09:09:02.108Z,13.03
2022-09-23T09:11:38.122Z,13.09
2022-09-23T09:14:19.566Z,13.18
2022-09-23T09:16:59.965Z,13.21
2022-09-23T09:19:56.713Z,13.01
2022-09-23T09:22:42.909Z,13.05
2022-09-23T09:25:24.835Z,13.16
2022-09-23T09:27:58.413Z,13.26
2022-09-23T09:30:30.587Z,13.40
2022-09-23T09:33:06.806Z,13.48
2022-09-23T09:35:43.322Z,13.53
2022-09-23T09:38:15.273Z,13.63
2022-09-23T09:40:49.688Z,13.63
2022-09-23T09:43:23.352Z,13.60
2022-09-23T09:46:08.312Z,13.61
2022-09-23T09:48:50.731Z,13.68
2022-09-23T09:51:24.824Z,13.76
2022-09-23T09:54:16.226Z,13.84
2022-09-23T09:59:29.278Z,13.94
2022-09-23T10:05:04.663Z,13.86
2022-09-23T10:07:36.821Z,13.91
2022-09-23T10:10:36.501Z,14.07
2022-09-23T10:13:20.540Z,14.25
2022-09-23T10:15:54.756Z,14.35
2022-09-23T10:18:33.575Z,14.36
2022-09-23T10:21:12.096Z,14.43
2022-09-23T10:23:46.441Z,14.51
2022-09-23T10:26:18.417Z,14.65
2022-09-23T10:28:51.863Z,14.70
2022-09-23T10:31:26.684Z,14.66
2022-09-23T10:34:00.668Z,14.63
2022-09-23T10:36:33.884Z,14.58
2022-09-23T10:39:24.841Z,14.62
2022-09-23T10:42:21.867Z,14.75
2022-09-23T10:45:24.751Z,14.81
2022-09-23T10:48:05.724Z,14.86
2022-09-23T10:50:42.991Z,14.89
2022-09-23T10:53:24.062Z,14.99
2022-09-23T10:56:16.781Z,15.08
2022-09-23T10:59:09.206Z,15.23
2022-09-23T11:01:49.625Z,15.28
2022-09-23T11:04:41.742Z,15.14
2022-09-23T11:07:28.100Z,14.97
2022-09-23T11:10:29.284Z,14.81
2022-09-23T11:13:17.115Z,14.65
2022-09-23T11:16:00.875Z,14.60
2022-09-23T11:18:52.214Z,14.53
2022-09-23T11:21:39.534Z,14.49
2022-09-23T11:24:28.016Z,14.55
2022-09-23T11:27:09.078Z,14.63
2022-09-23T11:30:02.583Z,14.64
2022-09-23T11:32:52.649Z,14.53
2022-09-23T11:35:28.843Z,14.46
2022-09-23T11:38:12.340Z,14.48
2022-09-23T11:40:47.370Z,14.56
2022-09-23T11:43:23.476Z,14.63
2022-09-23T11:46:02.101Z,14.66
2022-09-23T11:48:41.272Z,14.69
2022-09-23T11:51:17.868Z,14.67
2022-09-23T11:53:54.721Z,14.74
2022-09-23T11:56:36.013Z,14.80
2022-09-23T11:59:17.072Z,14.78
2022-09-23T12:01:52.731Z,14.81
2022-09-23T12:04:31.177Z,14.90
2022-09-23T12:07:09.657Z,15.07
2022-09-23T12:09:58.819Z,15.21
2022-09-23T12:12:36.698Z,15.35
2022-09-23T12:15:20.325Z,15.43
2022-09-23T12:18:11.075Z,15.54
2022-09-23T12:20:54.771Z,15.61
2022-09-23T12:23:44.105Z,15.56
2022-09-23T12:26:20.110Z,15.50
2022-09-23T12:28:55.479Z,15.52
2022-09-23T12:31:33.066Z,15.50
2022-09-23T12:34:23.201Z,15.48
2022-09-23T12:36:54.717Z,15.37
2022-09-23T12:39:31.306Z,15.31
2022-09-23T12:42:04.219Z,15.24
2022-09-23T12:44:41.149Z,15.21
2022-09-23T12:47:39.025Z,15.23
2022-09-23T12:50:45.264Z,15.27
2022-09-23T12:53:54.650Z,15.24
2022-09-23T12:56:29.864Z,15.21
2022-09-23T12:59:21.669Z,15.21
2022-09-23T13:01:53.918Z,15.22
2022-09-23T13:05:01.508Z,15.24
2022-09-23T13:07:34.799Z,15.25
2022-09-23T13:10:16.533Z,15.32
2022-09-23T13:12:49.201Z,15.36
2022-09-23T13:15:28.691Z,15.42
2022-09-23T13:18:50.362Z,15.49
2022-09-23T13:22:13.675Z,15.54
2022-09-23T13:24:53.404Z,15.58
2022-09-23T13:27:31.183Z,15.60
2022-09-23T13:30:07.803Z,15.57
2022-09-23T13:32:46.011Z,15.49
2022-09-23T13:35:26.723Z,15.40
2022-09-23T13:37:58.286Z,15.34
2022-09-23T13:40:31.687Z,15.25
2022-09-23T13:43:06.466Z,15.21
2022-09-23T13:45:43.206Z,15.13
2022-09-23T13:48:16.544Z,15.09
2022-09-23T13:50:51.037Z,15.02
2022-09-23T13:53:27.367Z,14.92
2022-09-23T13:56:07.882Z,14.81
2022-09-23T13:58:40.225Z,14.78
2022-09-23T14:01:22.532Z,14.74
2022-09-23T14:03:54.104Z,14.73
2022-09-23T14:06:27.312Z,14.75
2022-09-23T14:09:02.298Z,14.76
2022-09-23T14:11:35.941Z,14.79
2022-09-23T14:14:14.515Z,14.81
2022-09-23T14:16:46.437Z,14.83
2022-09-23T14:19:21.067Z,14.82
2022-09-23T14:21:54.282Z,14.81
2022-09-23T14:24:32.500Z,14.75
2022-09-23T14:27:15.094Z,14.69
2022-09-23T14:29:49.326Z,14.65
2022-09-23T14:32:24.986Z,14.63
2022-09-23T14:35:17.025Z,14.62
2022-09-23T14:38:08.664Z,14.62
2022-09-23T14:40:39.749Z,14.63
2022-09-23T14:43:23.189Z,14.54
2022-09-23T14:45:56.516Z,14.51
2022-09-23T14:48:31.638Z,14.48
2022-09-23T14:51:06.031Z,14.45
2022-09-23T14:53:40.858Z,14.43
2022-09-23T14:56:16.765Z,14.37
2022-09-23T14:58:53.033Z,14.29
2022-09-23T15:01:39.691Z,14.23
2022-09-23T15:04:18.178Z,14.15
2022-09-23T15:06:54.314Z,14.08
2022-09-23T15:09:29.795Z,14.00
2022-09-23T15:12:04.689Z,13.90
2022-09-23T15:14:41.268Z,13.78
2022-09-23T15:17:25.902Z,13.64
2022-09-23T15:19:59.728Z,13.53
2022-09-23T15:22:31.357Z,13.43
2022-09-23T15:25:18.784Z,13.36
2022-09-23T15:28:02.450Z,13.24
2022-09-23T15:30:35.956Z,13.15
2022-09-23T15:33:09.731Z,13.05
2022-09-23T15:35:49.190Z,12.95
2022-09-23T15:38:21.099Z,12.88
2022-09-23T15:40:52.654Z,12.82
2022-09-23T15:43:26.694Z,12.72
2022-09-23T15:46:01.090Z,12.64
2022-09-23T15:48:39.486Z,12.58
2022-09-23T15:51:15.227Z,12.48
2022-09-23T15:53:47.849Z,12.37
2022-09-23T15:56:19.341Z,12.29
2022-09-23T15:58:49.521Z,12.20
2022-09-23T16:01:28.802Z,12.04
2022-09-23T16:04:01.769Z,11.94
2022-09-23T16:06:36.049Z,11.87
2022-09-23T16:09:08.246Z,11.82
2022-09-23T16:11:42.095Z,11.75
2022-09-23T16:14:16.567Z,11.66
2022-09-23T16:16:48.490Z,11.57
2022-09-23T16:19:20.070Z,11.49
2022-09-23T16:21:50.096Z,11.41
2022-09-23T16:24:26.005Z,11.23
2022-09-23T16:27:03.451Z,11.13
2022-09-23T16:29:34.971Z,11.05
2022-09-23T16:32:04.994Z,10.98
2022-09-23T16:34:36.489Z,10.84
2022-09-23T16:37:07.147Z,10.78
2022-09-23T16:39:38.955Z,10.67
2022-09-23T16:42:10.913Z,10.63
2022-09-23T16:44:42.520Z,10.57
2022-09-23T16:47:14.244Z,10.49
2022-09-23T16:49:45.833Z,10.37
2022-09-23T16:52:20.167Z,10.28
2022-09-23T16:54:52.442Z,10.13
2022-09-23T16:57:24.137Z,10.07
2022-09-23T17:00:13.769Z,10.01
2022-09-23T17:03:02.963Z,10.00
2022-09-23T17:05:34.688Z,9.97
2022-09-23T17:08:07.654Z,9.94
2022-09-23T17:10:39.190Z,9.86
2022-09-23T17:13:12.797Z,9.77
2022-09-23T17:15:45.103Z,9.71
2022-09-23T17:18:19.497Z,9.66
2022-09-23T17:21:02.053Z,9.62
2022-09-23T17:23:37.533Z,9.56
2022-09-23T17:26:09.821Z,9.43
2022-09-23T17:28:41.510Z,9.34
2022-09-23T17:31:13.264Z,9.26
2022-09-23T17:33:45.156Z,9.19
2022-09-23T17:36:19.625Z,9.15
2022-09-23T17:38:53.634Z,9.13
2022-09-23T17:41:25.619Z,9.11
2022-09-23T17:44:00.789Z,9.07
2022-09-23T17:46:32.604Z,9.04
2022-09-23T17:49:05.622Z,9.00
2022-09-23T17:51:37.600Z,8.94
2022-09-23T17:54:10.311Z,8.91
2022-09-23T17:56:42.518Z,8.86
2022-09-23T17:59:14.744Z,8.75
2022-09-23T18:01:46.738Z,8.66
2022-09-23T18:04:18.588Z,8.59
2022-09-23T18:06:51.494Z,8.52
2022-09-23T18:09:30.624Z,8.47
2022-09-23T18:12:02.871Z,8.42
2022-09-23T18:14:37.074Z,8.36
2022-09-23T18:17:09.596Z,8.24
2022-09-23T18:19:42.597Z,8.17
2022-09-23T18:22:15.146Z,8.11
2022-09-23T18:24:47.375Z,8.05
2022-09-23T18:27:19.296Z,7.96
2022-09-23T18:29:51.551Z,7.83
2022-09-23T18:32:23.324Z,7.71
2022-09-23T18:34:55.400Z,7.65
2022-09-23T18:37:27.707Z,7.64
2022-09-23T18:39:59.713Z,7.63
2022-09-23T18:42:32.348Z,7.60
2022-09-23T18:45:04.761Z,7.57
2022-09-23T18:47:54.179Z,7.56
2022-09-23T18:50:42.246Z,7.57
2022-09-23T18:53:14.106Z,7.57
2022-09-23T18:55:45.921Z,7.55
2022-09-23T18:58:17.829Z,7.53
2022-09-23T19:00:51.515Z,7.45
2022-09-23T19:03:23.452Z,7.37
2022-09-23T19:05:55.442Z,7.34
2022-09-23T19:08:27.327Z,7.30
2022-09-23T19:11:01.679Z,7.21
2022-09-23T19:13:35.065Z,7.17
2022-09-23T19:16:11.942Z,7.17
2022-09-23T19:18:46.469Z,7.15
2022-09-23T19:21:23.118Z,7.08
2022-09-23T19:23:57.328Z,7.00
2022-09-23T19:26:32.162Z,6.92
2022-09-23T19:29:06.336Z,6.84
2022-09-23T19:31:40.881Z,6.81
2022-09-23T19:34:17.812Z,6.79
2022-09-23T19:36:50.679Z,6.77
2022-09-23T19:39:24.406Z,6.70
2022-09-23T19:41:57.622Z,6.58
2022-09-23T19:44:32.628Z,6.55
2022-09-23T19:47:04.908Z,6.54
2022-09-23T19:49:36.714Z,6.53
2022-09-23T19:52:08.460Z,6.55
2022-09-23T19:54:40.606Z,6.50
2022-09-23T19:57:12.628Z,6.39
2022-09-23T19:59:45.601Z,6.31
2022-09-23T20:02:18.010Z,6.28
2022-09-23T20:04:51.949Z,6.27
2022-09-23T20:07:23.820Z,6.26
2022-09-23T20:09:56.376Z,6.22
2022-09-23T20:12:29.198Z,6.11
2022-09-23T20:15:01.215Z,6.02
2022-09-23T20:17:33.034Z,5.98
2022-09-23T20:20:05.483Z,5.98
2022-09-23T20:22:37.034Z,6.01
2022-09-23T20:25:13.455Z,6.01
2022-09-23T20:27:49.484Z,6.02
2022-09-23T20:30:21.727Z,6.02
2022-09-23T20:32:53.413Z,6.01
2022-09-23T20:35:23.538Z,5.94
2022-09-23T20:37:55.231Z,5.78
2022-09-23T20:40:25.259Z,5.65
2022-09-23T20:42:56.804Z,5.49
2022-09-23T20:45:28.261Z,5.44
2022-09-23T20:48:00.725Z,5.43
2022-09-23T20:50:32.213Z,5.36
2022-09-23T20:53:03.650Z,5.31
2022-09-23T20:55:35.291Z,5.23
2022-09-23T20:58:05.403Z,5.12
2022-09-23T21:00:38.634Z,5.03
2022-09-23T21:03:10.389Z,5.01
2022-09-23T21:05:42.481Z,5.00
2022-09-23T21:08:13.999Z,4.95
2022-09-23T21:10:53.801Z,4.88
2022-09-23T21:13:25.736Z,4.81
2022-09-23T21:15:58.206Z,4.79
2022-09-23T21:18:29.892Z,4.82
2022-09-23T21:21:01.068Z,4.82
2022-09-23T21:23:34.628Z,4.74
2022-09-23T21:26:08.084Z,4.70
2022-09-23T21:28:41.602Z,4.72
2022-09-23T21:31:22.629Z,4.74
2022-09-23T21:33:59.037Z,4.77
2022-09-23T21:36:32.722Z,4.77
2022-09-23T21:39:05.442Z,4.74
2022-09-23T21:41:37.744Z,4.68
2022-09-23T21:44:09.454Z,4.61
2022-09-23T21:46:39.592Z,4.54
2022-09-23T21:49:11.075Z,4.43
2022-09-23T21:51:43.186Z,4.38
2022-09-23T21:54:17.510Z,4.32
2022-09-23T21:56:49.056Z,4.29
2022-09-23T21:59:20.476Z,4.27
2022-09-23T22:01:54.203Z,4.26
2022-09-23T22:04:26.023Z,4.28
2022-09-23T22:06:59.220Z,4.31
2022-09-23T22:09:30.998Z,4.36
2022-09-23T22:12:11.162Z,4.43
2022-09-23T22:14:43.349Z,4.51
2022-09-23T22:17:16.491Z,4.59
2022-09-23T22:19:48.785Z,4.67
2022-09-23T22:22:20.592Z,4.76
2022-09-23T22:24:52.318Z,4.83
2022-09-23T22:27:23.608Z,4.89
2022-09-23T22:30:13.006Z,4.89
2022-09-23T22:32:52.812Z,4.88
2022-09-23T22:35:25.881Z,4.89
2022-09-23T22:37:57.340Z,4.90
2022-09-23T22:40:28.933Z,4.93
2022-09-23T22:42:58.971Z,4.98
2022-09-23T22:45:30.418Z,4.99
2022-09-23T22:48:05.074Z,5.06
2022-09-23T22:50:39.682Z,5.13
2022-09-23T22:53:11.169Z,5.19
2022-09-23T22:55:43.009Z,5.21
2022-09-23T22:58:31.140Z,5.16
2022-09-23T23:01:03.581Z,5.09
2022-09-23T23:03:36.616Z,5.04
2022-09-23T23:06:10.599Z,5.01
2022-09-23T23:08:42.103Z,4.97
2022-09-23T23:11:13.660Z,4.96
2022-09-23T23:13:43.724Z,4.94
2022-09-23T23:16:15.405Z,4.89
2022-09-23T23:18:47.708Z,4.89
2022-09-23T23:21:21.603Z,4.91
2022-09-23T23:23:54.168Z,4.92
2022-09-23T23:26:27.915Z,4.90
2022-09-23T23:28:59.870Z,4.87
2022-09-23T23:31:33.152Z,4.90
2022-09-23T23:34:04.725Z,4.95
2022-09-23T23:36:37.172Z,5.02
2022-09-23T23:39:08.964Z,5.08
2022-09-23T23:41:41.617Z,5.07
2022-09-23T23:44:14.823Z,5.03
2022-09-23T23:46:46.325Z,4.96
2022-09-23T23:49:16.497Z,4.92
2022-09-23T23:51:48.021Z,4.81
2022-09-23T23:54:23.072Z,4.75
2022-09-23T23:56:55.212Z,4.71
2022-09-23T23:59:28.770Z,4.67
